EREK1: Neosho River near Erie

                                SHEF ID:       EREK1     NEOSHO R NR ERIE, KS
STATION TYPE:

PRECIP STAGE RIV-FLOW BAT-LOAD
in ft cfs volt
Ccp-Rev Ccp-Rev Ccp-Rev Ccp-Rev
(America/Chicago)
03/06 00:00 ---- 14.46 3720 12.41
03/06 01:00 ---- 14.47 3740 12.40
03/06 02:00 ---- 14.44 3690 12.40
03/06 03:00 ---- 14.46 3720 12.38
03/06 04:00 ---- 14.51 3790 12.37
03/06 05:00 ---- 14.49 3770 12.36
03/06 06:00 ---- 14.53 3820 12.34
03/06 07:00 ---- 14.52 3810 12.34
03/06 08:00 ---- 14.54 3840 12.36
03/06 09:00 ---- 14.52 3810 12.54
03/06 10:00 ---- 14.54 3840 13.22
03/06 11:00 ---- 14.56 3870 12.88
03/06 12:00 ---- 14.54 3840 13.18
03/06 13:00 ---- 14.53 3820 12.93
03/06 14:00 ---- 14.54 3840 13.07
03/06 15:00 ---- 14.53 3820 13.32
03/06 16:00 ---- 14.54 3840 13.03
03/06 17:00 ---- 14.59 3910 13.23
03/06 18:00 ---- 14.63 3970 13.31
03/06 19:00 ---- 14.75 4140 12.70
03/06 20:00 ---- 14.74 4120 12.53
03/06 21:00 ---- 14.82 4240 12.48
03/06 22:00 ---- 14.94 4410 12.46
03/06 23:00 ---- 15.16 4720 12.44
Data processed at Sat 07Mar2026 05:23 GMT

NOTICE: If you are parsing this page

Please convert to using our Data API. Starting early 2026 we will be migrating to: https://water.usace.army.mil with modern pages rendered in JavaScript. When this migration completes you will no longer be able to scrape this page! CWMSDataAPI (CDA)

Timeseries IDs (TSIDs)

TSIDs used from left to right in the data table
ERIE.Precip-Inc.Total.1Hour.1Hour.Ccp-Rev
ERIE.Stage.Inst.1Hour.0.Ccp-Rev
ERIE.Flow.Inst.1Hour.0.Ccp-Rev
ERIE.Volt-Battery Load.Inst.1Hour.0.Ccp-Rev

                            

All information presented herein is the property of the government of the United States of America and may be revised or deleted at any time without prior notice. Dissemination of this information without the expressed written consent of the Public Affairs Office, Tulsa District U.S. Army Corps of Engineers is strictly prohibited. These data are gathered electronically and, as presented, have NOT undergone any form of quality control. These data are NOT guaranteed to be valid or correct.